Strona główna
METAR-TAF:

METAR-TAF

Lotnisko :

Willoughby, Ohio, Stany Zjednoczone

Szerokość geograficzna: 41-41-02N, Długość geograficzna: 081-23-23W, wysokość: 191 m

Aktualna obserwacja pogody

Raport powstał 33 minut temu, godzina 17:35 UTC
Wiatr 8 kt od północny zachód
Temperatura -6°C
Wilgotność 53%
Ciśnienie 1035 hPa
Widzialność: 16.1 km
Zachmurzenie całkowite na wysokości 3100 ft

METAR: KLNN 201735Z AUTO 32008KT 10SM OVC031 M06/M14 A3057 RMK AO1 T10571145

czas: 13:08 (18:08 UTC)


TAF: brakujący

Obserwacja i prognoza pogody dla ponad 4000 lotnisk (raport METAR i TAF).

Dostępne stacje oznaczono żółtymi i czerwonymi punktami na mapie.

Najedź kursorem aby zobaczyć nazwę stacji.

Kliknij aby zobaczyć obserwacje i prognozy pogody.

Aby zmienić mapę: kliknij na zielony przycisk z czarnym krzyżykiem, aby powiększyć; na zielony przycisk z myślnikiem, aby pomniejszyć; na zielone strzałki, aby przejść do map sąsiednich.


METAR-TAF: